Darstellungsparameter: Aktuell verwendete Einstellungen:
Skalierung der Graphiken ... ?
xyx+y,   Skalierungsfaktor:      Skalierung: Modus: x, Faktor: 1
Darstellungszeitraum ... ?
Vom - - bis: - -   Zeitraum: 11.05.2021 - 11.05.2021
Min/Max/Avg-Anzeige ... ?
Zeige MMA aktuell
Zeige MMA Monat
Zeige MMA alles
Zeige --A aktuell
Zeige --A Monat
Zeige --A alles
Keine MMA-Anzeige
MMA:
Minimum Maximum Average (ber die Originaldaten)
MMA-Basis: 23.02.2003 - 16.06.2020
Quicknavigation für Darstellung... ?
Tage:      1T, 2T, 3T, 5T -1T -2T -3T -5T +1T +2T +3T +5T
Wochen: 1W, 2W, 3W -1W -2W -3W +1W +2W +3W
Monate: 1M, 3M, 6M -1M -3M -6M +1M +3M +6M
Jahre:    1J, 3J, 5J, 10J -1J -3J -5J -10J +1J +3J +5J +10J
Nutze für die Darstellung ... ?
Originaldaten oder Mittelwerte auf ...
Stundenbasis Tagesbasis Wochenbasis
Monatsbasis Jahresbasis      Datenbasis: Original-Daten
Darstellen als:
Statistik (Auto) Statistik J:M      Darstellung:

Der gewünschte Datumsbereich war nicht gültig/verfügbar und wurde korrigiert....
Das angegebene Enddatum (15.06.2030 23:59:59) liegt in der Zukunft.
Das angegebene Startdatum (16.05.2030 00:00:00) liegt in der Zukunft.


Zur Graphik,    zurück zur Übersicht aller Sensoren.
 
Tabellarische Datenbersicht: ?
 
Sensor: Nr:Datum:Temp:Abs-Feuchte:Windchill:Wind:
Aussen-T/F 1 11-05-2021 02:00:00 13.2 C 10.91 g/m*3 13.2 C 0 km/h
2 11-05-2021 02:05:00 13.2 C 10.91 g/m*3 13.2 C 0 km/h
3 11-05-2021 02:10:00 13.2 C 10.91 g/m*3 13.2 C 0 km/h
4 11-05-2021 02:15:00 13.2 C 10.91 g/m*3 13.2 C 0 km/h
5 11-05-2021 02:20:00 13.1 C 10.84 g/m*3 13.1 C 0 km/h
6 11-05-2021 02:25:00 13.1 C 10.84 g/m*3 13.1 C 0 km/h
7 11-05-2021 02:30:00 13.1 C 10.84 g/m*3 13.1 C 0 km/h
8 11-05-2021 02:35:00 13.1 C 10.84 g/m*3 13.1 C 0 km/h
9 11-05-2021 02:40:00 13.1 C 10.84 g/m*3 13.1 C 0 km/h
10 11-05-2021 02:45:00 13.1 C 10.84 g/m*3 13.1 C 0 km/h
11 11-05-2021 02:50:00 13.1 C 10.84 g/m*3 13.1 C 1.6 km/h
12 11-05-2021 02:55:00 13 C 10.77 g/m*3 13 C 0 km/h
13 11-05-2021 03:00:00 13 C 10.77 g/m*3 13 C 0 km/h
14 11-05-2021 03:05:00 13 C 10.77 g/m*3 13 C 0 km/h
15 11-05-2021 03:10:00 13 C 10.77 g/m*3 13 C 0 km/h
16 11-05-2021 03:15:00 13 C 10.77 g/m*3 13 C 0 km/h
17 11-05-2021 03:20:00 12.9 C 10.71 g/m*3 12.9 C 1.6 km/h
18 11-05-2021 03:25:00 12.9 C 10.71 g/m*3 12.9 C 0 km/h
19 11-05-2021 03:30:00 12.9 C 10.71 g/m*3 12.9 C 0 km/h
20 11-05-2021 03:35:00 12.9 C 10.71 g/m*3 12.9 C 0 km/h
21 11-05-2021 03:40:00 12.9 C 10.71 g/m*3 12.9 C 0 km/h
22 11-05-2021 03:45:00 12.9 C 10.71 g/m*3 12.9 C 0 km/h
23 11-05-2021 03:50:00 12.9 C 10.71 g/m*3 12.9 C 0 km/h
24 11-05-2021 03:55:00 12.9 C 10.71 g/m*3 12.9 C 0 km/h
25 11-05-2021 04:00:00 12.8 C 10.64 g/m*3 12.8 C 0 km/h
Sensor: Nr:Datum:Temp:Abs-Feuchte:Windchill:Wind:
Aussen-T/F 26 11-05-2021 04:05:00 12.8 C 10.64 g/m*3 12.8 C 0 km/h
27 11-05-2021 04:10:00 12.8 C 10.64 g/m*3 12.8 C 0 km/h
28 11-05-2021 04:15:00 12.8 C 10.64 g/m*3 12.8 C 0 km/h
29 11-05-2021 04:20:00 12.7 C 10.58 g/m*3 12.7 C 0 km/h
30 11-05-2021 04:25:00 12.7 C 10.58 g/m*3 12.7 C 0 km/h
31 11-05-2021 04:30:00 12.7 C 10.58 g/m*3 12.7 C 0 km/h
32 11-05-2021 04:35:00 12.7 C 10.58 g/m*3 12.7 C 0 km/h
33 11-05-2021 04:40:00 12.7 C 10.58 g/m*3 12.7 C 0 km/h
34 11-05-2021 04:45:00 12.7 C 10.69 g/m*3 12.7 C 0 km/h
35 11-05-2021 04:50:00 12.6 C 10.62 g/m*3 12.6 C 0 km/h
36 11-05-2021 04:55:00 12.6 C 10.62 g/m*3 12.6 C 0 km/h
37 11-05-2021 05:00:00 12.6 C 10.62 g/m*3 12.6 C 0 km/h
38 11-05-2021 05:05:00 12.6 C 10.62 g/m*3 12.6 C 0 km/h
39 11-05-2021 05:10:00 12.6 C 10.62 g/m*3 12.6 C 0 km/h
40 11-05-2021 05:15:00 12.5 C 10.44 g/m*3 12.5 C 0 km/h
41 11-05-2021 05:20:00 12.4 C 10.38 g/m*3 12.4 C 0 km/h
42 11-05-2021 05:25:00 12.4 C 10.38 g/m*3 12.4 C 0 km/h
43 11-05-2021 05:30:00 12.4 C 10.38 g/m*3 12.4 C 0 km/h
44 11-05-2021 05:35:00 12.4 C 10.49 g/m*3 12.4 C 3.2 km/h
45 11-05-2021 05:40:00 12.4 C 10.49 g/m*3 12.4 C 3.2 km/h
46 11-05-2021 05:45:00 12.4 C 10.49 g/m*3 12.4 C 1.6 km/h
47 11-05-2021 05:50:00 12.4 C 10.49 g/m*3 12.4 C 1.6 km/h
48 11-05-2021 05:55:00 12.3 C 10.42 g/m*3 12.3 C 3.2 km/h
49 11-05-2021 06:00:00 12.3 C 10.42 g/m*3 12.3 C 0 km/h
50 11-05-2021 06:05:00 12.3 C 10.42 g/m*3 12.3 C 1.6 km/h
Sensor: Nr:Datum:Temp:Abs-Feuchte:Windchill:Wind:
Aussen-T/F 51 11-05-2021 06:10:00 12.3 C 10.42 g/m*3 12.3 C 3.2 km/h
52 11-05-2021 06:15:00 12.3 C 10.42 g/m*3 12.3 C 3.2 km/h
53 11-05-2021 06:20:00 12.3 C 10.42 g/m*3 12.3 C 0 km/h
54 11-05-2021 06:25:00 12.3 C 10.42 g/m*3 12.3 C 1.6 km/h
55 11-05-2021 06:30:00 12.3 C 10.42 g/m*3 12.3 C 1.6 km/h
56 11-05-2021 06:35:00 12.2 C 10.36 g/m*3 12.2 C 0 km/h
57 11-05-2021 06:40:00 12.2 C 10.36 g/m*3 12.2 C 3.2 km/h
58 11-05-2021 06:45:00 12.1 C 10.29 g/m*3 12.1 C 3.2 km/h
59 11-05-2021 06:50:00 11.9 C 10.17 g/m*3 11.9 C 3.2 km/h
60 11-05-2021 06:55:00 11.8 C 10.1 g/m*3 11.8 C 3.2 km/h
61 11-05-2021 07:00:00 11.8 C 10.1 g/m*3 11.8 C 1.6 km/h
62 11-05-2021 07:05:00 11.9 C 10.17 g/m*3 11.9 C 0 km/h
63 11-05-2021 07:10:00 12 C 10.23 g/m*3 12 C 0 km/h
64 11-05-2021 07:15:00 12.1 C 10.29 g/m*3 12.1 C 0 km/h
65 11-05-2021 07:20:00 12.2 C 10.36 g/m*3 12.2 C 0 km/h
66 11-05-2021 07:25:00 12.3 C 10.42 g/m*3 12.3 C 0 km/h
67 11-05-2021 07:30:00 12.4 C 10.49 g/m*3 12.4 C 0 km/h
68 11-05-2021 07:35:00 12.6 C 10.62 g/m*3 12.6 C 0 km/h
69 11-05-2021 07:40:00 12.7 C 10.69 g/m*3 12.7 C 0 km/h
70 11-05-2021 07:45:00 12.8 C 10.87 g/m*3 12.8 C 3.2 km/h
71 11-05-2021 07:50:00 12.9 C 10.93 g/m*3 12.9 C 4.8 km/h
72 11-05-2021 07:55:00 12.9 C 10.82 g/m*3 12.9 C 3.2 km/h
73 11-05-2021 08:00:00 12.9 C 10.82 g/m*3 12.9 C 4.8 km/h
74 11-05-2021 08:05:00 12.9 C 10.82 g/m*3 12.9 C 1.6 km/h
75 11-05-2021 08:10:00 13 C 10.89 g/m*3 13 C 0 km/h
Sensor: Nr:Datum:Temp:Abs-Feuchte:Windchill:Wind:
Aussen-T/F 76 11-05-2021 08:15:00 13.1 C 10.95 g/m*3 13.1 C 0 km/h
77 11-05-2021 08:20:00 13.1 C 10.95 g/m*3 13.1 C 1.6 km/h
78 11-05-2021 08:25:00 13.1 C 10.95 g/m*3 13.1 C 0 km/h
79 11-05-2021 08:30:00 13.1 C 10.95 g/m*3 13.1 C 0 km/h
80 11-05-2021 08:35:00 13.1 C 10.95 g/m*3 13.1 C 0 km/h
81 11-05-2021 08:40:00 13.2 C 11.02 g/m*3 13.2 C 0 km/h
82 11-05-2021 08:45:00 13.2 C 11.02 g/m*3 13.2 C 0 km/h
83 11-05-2021 08:50:00 13.3 C 11.09 g/m*3 13.3 C 0 km/h
84 11-05-2021 08:55:00 13.3 C 11.09 g/m*3 13.3 C 0 km/h
85 11-05-2021 09:00:00 13.3 C 11.09 g/m*3 13.3 C 0 km/h
86 11-05-2021 09:05:00 13.4 C 11.16 g/m*3 13.4 C 0 km/h
87 11-05-2021 09:10:00 13.5 C 11.23 g/m*3 13.5 C 0 km/h
88 11-05-2021 09:15:00 13.6 C 11.3 g/m*3 13.6 C 0 km/h
89 11-05-2021 09:20:00 13.6 C 11.3 g/m*3 13.6 C 0 km/h
90 11-05-2021 09:25:00 13.5 C 11.23 g/m*3 13.5 C 1.6 km/h
91 11-05-2021 09:30:00 13.4 C 11.16 g/m*3 13.4 C 1.6 km/h
92 11-05-2021 09:35:00 13.4 C 11.16 g/m*3 13.4 C 1.6 km/h
93 11-05-2021 09:40:00 13.5 C 11.23 g/m*3 13.5 C 3.2 km/h
94 11-05-2021 09:45:00 13.5 C 11.23 g/m*3 13.5 C 3.2 km/h
95 11-05-2021 09:50:00 13.6 C 11.3 g/m*3 13.6 C 1.6 km/h
96 11-05-2021 09:55:00 13.6 C 11.18 g/m*3 13.6 C 1.6 km/h
97 11-05-2021 10:00:00 13.7 C 11.25 g/m*3 13.7 C 1.6 km/h
98 11-05-2021 10:05:00 13.6 C 11.18 g/m*3 13.6 C 3.2 km/h
99 11-05-2021 10:10:00 13.8 C 11.32 g/m*3 13.8 C 0 km/h
100 11-05-2021 10:15:00 13.8 C 11.2 g/m*3 13.8 C 1.6 km/h
Sensor: Nr:Datum:Temp:Abs-Feuchte:Windchill:Wind:
Aussen-T/F 101 11-05-2021 10:20:00 13.8 C 11.2 g/m*3 13.8 C 0 km/h
102 11-05-2021 10:25:00 13.9 C 11.27 g/m*3 13.9 C 1.6 km/h
103 11-05-2021 10:30:00 14 C 11.34 g/m*3 14 C 0 km/h
104 11-05-2021 10:35:00 14.1 C 11.41 g/m*3 14.1 C 0 km/h
105 11-05-2021 10:40:00 14.2 C 11.48 g/m*3 14.2 C 0 km/h
106 11-05-2021 10:45:00 14.2 C 11.48 g/m*3 14.2 C 0 km/h
107 11-05-2021 10:50:00 14.2 C 11.48 g/m*3 14.2 C 0 km/h
108 11-05-2021 10:55:00 14.2 C 11.48 g/m*3 14.2 C 0 km/h
109 11-05-2021 11:00:00 14.3 C 11.55 g/m*3 14.3 C 0 km/h
110 11-05-2021 11:05:00 14.3 C 11.55 g/m*3 14.3 C 0 km/h
111 11-05-2021 11:10:00 14.3 C 11.55 g/m*3 14.3 C 0 km/h
112 11-05-2021 11:15:00 14.3 C 11.55 g/m*3 14.3 C 0 km/h
113 11-05-2021 11:20:00 14.3 C 11.55 g/m*3 14.3 C 0 km/h
114 11-05-2021 11:25:00 14.3 C 11.55 g/m*3 14.3 C 0 km/h
115 11-05-2021 11:30:00 14.3 C 11.55 g/m*3 14.3 C 0 km/h
116 11-05-2021 11:35:00 14.3 C 11.55 g/m*3 14.3 C 0 km/h
117 11-05-2021 11:40:00 14.2 C 11.48 g/m*3 14.2 C 0 km/h
118 11-05-2021 11:45:00 14.1 C 11.41 g/m*3 14.1 C 0 km/h
119 11-05-2021 11:50:00 14.1 C 11.41 g/m*3 14.1 C 0 km/h
120 11-05-2021 11:55:00 14.1 C 11.41 g/m*3 14.1 C 0 km/h
121 11-05-2021 12:00:00 14.2 C 11.6 g/m*3 14.2 C 0 km/h
122 11-05-2021 12:05:00 14.2 C 11.6 g/m*3 14.2 C 0 km/h
123 11-05-2021 12:10:00 14.3 C 11.67 g/m*3 14.3 C 0 km/h
124 11-05-2021 12:15:00 14.2 C 11.6 g/m*3 14.2 C 0 km/h
125 11-05-2021 12:20:00 14.2 C 11.6 g/m*3 14.2 C 0 km/h
Sensor: Nr:Datum:Temp:Abs-Feuchte:Windchill:Wind:
Aussen-T/F 126 11-05-2021 12:25:00 14.2 C 11.6 g/m*3 14.2 C 0 km/h
127 11-05-2021 12:30:00 14.1 C 11.41 g/m*3 14.1 C 0 km/h
128 11-05-2021 12:35:00 14.1 C 11.41 g/m*3 14.1 C 0 km/h
129 11-05-2021 12:40:00 14 C 11.46 g/m*3 14 C 0 km/h
130 11-05-2021 12:45:00 14.1 C 11.53 g/m*3 14.1 C 0 km/h
131 11-05-2021 12:50:00 14.1 C 11.53 g/m*3 14.1 C 0 km/h
132 11-05-2021 12:55:00 14.1 C 11.53 g/m*3 14.1 C 1.6 km/h
133 11-05-2021 13:00:00 14.2 C 11.6 g/m*3 14.2 C 0 km/h
134 11-05-2021 13:05:00 14.2 C 11.6 g/m*3 14.2 C 1.6 km/h
135 11-05-2021 13:10:00 14.2 C 11.6 g/m*3 14.2 C 3.2 km/h
136 11-05-2021 13:15:00 14.2 C 11.6 g/m*3 14.2 C 1.6 km/h
137 11-05-2021 13:20:00 14.3 C 11.67 g/m*3 14.3 C 1.6 km/h
138 11-05-2021 13:25:00 14.2 C 11.6 g/m*3 14.2 C 1.6 km/h
139 11-05-2021 13:30:00 14.2 C 11.6 g/m*3 14.2 C 0 km/h
140 11-05-2021 13:35:00 14.3 C 11.67 g/m*3 14.3 C 0 km/h
141 11-05-2021 13:40:00 14.2 C 11.6 g/m*3 14.2 C 1.6 km/h
142 11-05-2021 13:45:00 14.2 C 11.6 g/m*3 14.2 C 0 km/h
143 11-05-2021 13:50:00 14.2 C 11.6 g/m*3 14.2 C 0 km/h
144 11-05-2021 13:55:00 14.2 C 11.6 g/m*3 14.2 C 0 km/h
145 11-05-2021 14:00:00 14.3 C 11.67 g/m*3 14.3 C 0 km/h
146 11-05-2021 14:05:00 14.4 C 11.74 g/m*3 14.4 C 1.6 km/h
147 11-05-2021 14:10:00 14.6 C 11.89 g/m*3 14.6 C 3.2 km/h
148 11-05-2021 14:15:00 14.6 C 11.89 g/m*3 14.6 C 3.2 km/h
149 11-05-2021 14:20:00 14.7 C 11.96 g/m*3 14.7 C 1.6 km/h
150 11-05-2021 14:25:00 14.7 C 11.83 g/m*3 14.7 C 3.2 km/h
Sensor: Nr:Datum:Temp:Abs-Feuchte:Windchill:Wind:
Aussen-T/F 151 11-05-2021 14:30:00 14.8 C 11.91 g/m*3 14.8 C 0 km/h
152 11-05-2021 14:35:00 14.9 C 11.98 g/m*3 14.9 C 3.2 km/h
153 11-05-2021 14:40:00 15 C 12.05 g/m*3 15 C 3.2 km/h
154 11-05-2021 14:45:00 15.1 C 12.13 g/m*3 15.1 C 3.2 km/h
155 11-05-2021 14:50:00 15.1 C 12.13 g/m*3 15.1 C 1.6 km/h
156 11-05-2021 14:55:00 15 C 11.93 g/m*3 15 C 4.8 km/h
157 11-05-2021 15:00:00 15.1 C 12 g/m*3 15.1 C 0 km/h
158 11-05-2021 15:05:00 15.2 C 12.2 g/m*3 15.2 C 1.6 km/h
159 11-05-2021 15:10:00 15.3 C 12.28 g/m*3 15.3 C 1.6 km/h
160 11-05-2021 15:15:00 15.4 C 12.35 g/m*3 15.4 C 0 km/h
161 11-05-2021 15:20:00 15.5 C 12.43 g/m*3 15.5 C 0 km/h
162 11-05-2021 15:25:00 15.5 C 12.43 g/m*3 15.5 C 0 km/h
163 11-05-2021 15:30:00 15.4 C 12.35 g/m*3 15.4 C 0 km/h
164 11-05-2021 15:35:00 15.4 C 12.35 g/m*3 15.4 C 0 km/h
165 11-05-2021 15:40:00 15.3 C 12.14 g/m*3 15.3 C 0 km/h
166 11-05-2021 15:45:00 15.2 C 12.07 g/m*3 15.2 C 3.2 km/h
167 11-05-2021 15:50:00 15.2 C 12.07 g/m*3 15.2 C 0 km/h
168 11-05-2021 15:55:00 15.2 C 12.07 g/m*3 15.2 C 0 km/h
169 11-05-2021 16:00:00 15.2 C 12.07 g/m*3 15.2 C 3.2 km/h
170 11-05-2021 16:05:00 15.2 C 12.07 g/m*3 15.2 C 1.6 km/h
171 11-05-2021 16:10:00 15.2 C 11.94 g/m*3 15.2 C 4.8 km/h
172 11-05-2021 16:15:00 15.3 C 12.14 g/m*3 15.3 C 0 km/h
173 11-05-2021 16:20:00 15.3 C 12.14 g/m*3 15.3 C 1.6 km/h
174 11-05-2021 16:25:00 15.4 C 12.22 g/m*3 15.4 C 0 km/h
175 11-05-2021 16:30:00 15.4 C 12.22 g/m*3 15.4 C 0 km/h
Sensor: Nr:Datum:Temp:Abs-Feuchte:Windchill:Wind:
Aussen-T/F 176 11-05-2021 16:35:00 15.4 C 12.22 g/m*3 15.4 C 0 km/h
177 11-05-2021 16:40:00 15.4 C 12.22 g/m*3 15.4 C 0 km/h
178 11-05-2021 16:45:00 15.5 C 12.29 g/m*3 15.5 C 0 km/h
179 11-05-2021 16:50:00 15.6 C 12.37 g/m*3 15.6 C 0 km/h
180 11-05-2021 16:55:00 15.6 C 12.37 g/m*3 15.6 C 0 km/h
181 11-05-2021 17:00:00 15.5 C 12.29 g/m*3 15.5 C 0 km/h
182 11-05-2021 17:05:00 15.6 C 12.37 g/m*3 15.6 C 0 km/h
183 11-05-2021 17:10:00 15.5 C 12.16 g/m*3 15.5 C 1.6 km/h
184 11-05-2021 17:15:00 15.4 C 11.82 g/m*3 15.4 C 4.8 km/h
185 11-05-2021 17:20:00 15.4 C 11.96 g/m*3 15.4 C 0 km/h
186 11-05-2021 17:25:00 15.5 C 12.16 g/m*3 15.5 C 0 km/h
187 11-05-2021 17:30:00 15.7 C 12.31 g/m*3 15.7 C 1.6 km/h
188 11-05-2021 17:35:00 15.7 C 12.31 g/m*3 15.7 C 6.4 km/h
189 11-05-2021 17:40:00 15.7 C 12.18 g/m*3 15.7 C 9.7 km/h
190 11-05-2021 17:45:00 15.3 C 11.75 g/m*3 15.3 C 12.9 km/h
191 11-05-2021 17:50:00 15.1 C 11.61 g/m*3 15.1 C 8.1 km/h
192 11-05-2021 17:55:00 14.9 C 11.6 g/m*3 14.9 C 3.2 km/h
193 11-05-2021 18:00:00 14.9 C 11.73 g/m*3 14.9 C 1.6 km/h
194 11-05-2021 18:05:00 14.9 C 11.73 g/m*3 14.9 C 1.6 km/h
195 11-05-2021 18:10:00 14.8 C 11.65 g/m*3 14.8 C 1.6 km/h
196 11-05-2021 18:15:00 14.8 C 11.65 g/m*3 14.8 C 0 km/h
197 11-05-2021 18:20:00 14.8 C 11.78 g/m*3 14.8 C 1.6 km/h
198 11-05-2021 18:25:00 14.8 C 11.78 g/m*3 14.8 C 1.6 km/h
199 11-05-2021 18:30:00 14.7 C 11.71 g/m*3 14.7 C 1.6 km/h
200 11-05-2021 18:35:00 14.7 C 11.71 g/m*3 14.7 C 3.2 km/h
Sensor: Nr:Datum:Temp:Abs-Feuchte:Windchill:Wind:
Aussen-T/F 201 11-05-2021 18:40:00 14.6 C 11.64 g/m*3 14.6 C 4.8 km/h
202 11-05-2021 18:45:00 14.6 C 11.64 g/m*3 14.6 C 4.8 km/h
203 11-05-2021 18:50:00 14.5 C 11.57 g/m*3 14.5 C 4.8 km/h
204 11-05-2021 18:55:00 14.4 C 11.5 g/m*3 14.4 C 0 km/h
205 11-05-2021 19:00:00 14.4 C 11.5 g/m*3 14.4 C 0 km/h
206 11-05-2021 19:05:00 14.4 C 11.62 g/m*3 14.4 C 1.6 km/h
207 11-05-2021 19:10:00 14.4 C 11.62 g/m*3 14.4 C 3.2 km/h
208 11-05-2021 19:15:00 14.4 C 11.62 g/m*3 14.4 C 4.8 km/h
209 11-05-2021 19:20:00 14.4 C 11.62 g/m*3 14.4 C 3.2 km/h
210 11-05-2021 19:25:00 14.4 C 11.62 g/m*3 14.4 C 3.2 km/h
211 11-05-2021 19:30:00 14.4 C 11.62 g/m*3 14.4 C 3.2 km/h
212 11-05-2021 19:35:00 14.4 C 11.62 g/m*3 14.4 C 6.4 km/h
213 11-05-2021 19:40:00 14.3 C 11.55 g/m*3 14.3 C 3.2 km/h
214 11-05-2021 19:45:00 14.3 C 11.55 g/m*3 14.3 C 3.2 km/h
215 11-05-2021 19:50:00 14.3 C 11.55 g/m*3 14.3 C 4.8 km/h
216 11-05-2021 19:55:00 14.2 C 11.48 g/m*3 14.2 C 3.2 km/h
217 11-05-2021 20:00:00 14.2 C 11.48 g/m*3 14.2 C 4.8 km/h
218 11-05-2021 20:05:00 14.2 C 11.48 g/m*3 14.2 C 3.2 km/h
219 11-05-2021 20:10:00 14.1 C 11.41 g/m*3 14.1 C 1.6 km/h
220 11-05-2021 20:15:00 14 C 11.34 g/m*3 14 C 6.4 km/h
221 11-05-2021 20:20:00 13.9 C 11.27 g/m*3 13.9 C 1.6 km/h
222 11-05-2021 20:25:00 13.8 C 11.2 g/m*3 13.8 C 1.6 km/h
223 11-05-2021 20:30:00 13.8 C 11.2 g/m*3 13.8 C 4.8 km/h
224 11-05-2021 20:35:00 13.7 C 11.13 g/m*3 13.7 C 4.8 km/h
225 11-05-2021 20:40:00 13.6 C 11.06 g/m*3 13.6 C 4.8 km/h
Sensor: Nr:Datum:Temp:Abs-Feuchte:Windchill:Wind:
Aussen-T/F 226 11-05-2021 20:45:00 13.4 C 10.93 g/m*3 13.4 C 6.4 km/h
227 11-05-2021 20:50:00 13.3 C 10.86 g/m*3 13.3 C 6.4 km/h
228 11-05-2021 20:55:00 13.2 C 10.79 g/m*3 13.2 C 4.8 km/h
229 11-05-2021 21:00:00 13.2 C 10.79 g/m*3 13.2 C 4.8 km/h
230 11-05-2021 21:05:00 13.1 C 10.73 g/m*3 13.1 C 6.4 km/h
231 11-05-2021 21:10:00 13 C 10.66 g/m*3 13 C 4.8 km/h
232 11-05-2021 21:15:00 12.9 C 10.59 g/m*3 12.9 C 6.4 km/h
233 11-05-2021 21:20:00 12.9 C 10.71 g/m*3 12.9 C 6.4 km/h
234 11-05-2021 21:25:00 12.9 C 10.71 g/m*3 12.9 C 4.8 km/h
235 11-05-2021 21:30:00 12.8 C 10.64 g/m*3 12.8 C 6.4 km/h
236 11-05-2021 21:35:00 12.8 C 10.64 g/m*3 12.8 C 4.8 km/h
237 11-05-2021 21:40:00 12.8 C 10.64 g/m*3 12.8 C 3.2 km/h
238 11-05-2021 21:45:00 12.8 C 10.64 g/m*3 12.8 C 3.2 km/h
239 11-05-2021 21:50:00 12.8 C 10.64 g/m*3 12.8 C 1.6 km/h
240 11-05-2021 21:55:00 12.8 C 10.64 g/m*3 12.8 C 3.2 km/h
241 11-05-2021 22:00:00 12.7 C 10.58 g/m*3 12.7 C 3.2 km/h
242 11-05-2021 22:05:00 12.7 C 10.58 g/m*3 12.7 C 4.8 km/h
243 11-05-2021 22:10:00 12.7 C 10.58 g/m*3 12.7 C 4.8 km/h
244 11-05-2021 22:15:00 12.7 C 10.58 g/m*3 12.7 C 4.8 km/h
245 11-05-2021 22:20:00 12.7 C 10.58 g/m*3 12.7 C 3.2 km/h
246 11-05-2021 22:25:00 12.7 C 10.69 g/m*3 12.7 C 1.6 km/h
247 11-05-2021 22:30:00 12.7 C 10.69 g/m*3 12.7 C 3.2 km/h
248 11-05-2021 22:35:00 12.7 C 10.69 g/m*3 12.7 C 3.2 km/h
249 11-05-2021 22:40:00 12.8 C 10.75 g/m*3 12.8 C 6.4 km/h
250 11-05-2021 22:45:00 12.8 C 10.75 g/m*3 12.8 C 8.1 km/h
Sensor: Nr:Datum:Temp:Abs-Feuchte:Windchill:Wind:
Aussen-T/F 251 11-05-2021 22:50:00 12.7 C 10.69 g/m*3 12.7 C 4.8 km/h
252 11-05-2021 22:55:00 12.7 C 10.69 g/m*3 12.7 C 4.8 km/h
253 11-05-2021 23:00:00 12.6 C 10.62 g/m*3 12.6 C 6.4 km/h
254 11-05-2021 23:05:00 12.5 C 10.44 g/m*3 12.5 C 4.8 km/h
255 11-05-2021 23:10:00 12.4 C 10.38 g/m*3 12.4 C 6.4 km/h
256 11-05-2021 23:15:00 12.4 C 10.38 g/m*3 12.4 C 6.4 km/h
257 11-05-2021 23:20:00 12.3 C 10.42 g/m*3 12.3 C 4.8 km/h
258 11-05-2021 23:25:00 12.2 C 10.36 g/m*3 12.2 C 3.2 km/h

Legende:
   Min
   Max


Maximal/Minimal-Werte vom 23.02.2003 - 16.06.2020

Sensor Min Max Avg
Temp
(Aussen-T/F)
-16.4 °C
20-12-2009  01:30:01
40.4 °C
25-07-2019  16:20:00
11.14 °C

Die Daten stammen von einer Davis Vantage Pro 2 Wetter-Station und werden unter Linux mit der Software wview2wettercgi und aufbereitet. Alle Angaben erfolgen ohne Gewähr für ihre Vollständigkeit oder Richtigkeit.
Kontakt: Rainer Krienke krienke@uni-koblenz.de . Meine Webseiten an der Uni Koblenz oder privat.
Version: $Revision: 0.78 $